EPWA Airport Information

Runway Information
Runway 11 Length 9186 ft width 164 ft
Elevation 361 ft Threshold 0 ft Heading 115
Runway 29 Length 9186 ft Width 164 ft
Elevation 344 ft Threshold 1640 ft Heading 295
Runway 15 Length 12106 ft width 197 ft
Elevation 351 ft Threshold 0 ft Heading 152
Runway 33 Length 12106 ft Width 197 ft
Elevation 351 ft Threshold 0 ft Heading 332
Airport Frequencies
Type APP Name WARSZAWA A Frequency 128.8 MHZ
Type ATIS Name ATIS Frequency 120.45 MHZ
Type CLD Name CLNC DEL Frequency 121.6 MHZ
Type DIR Name WARSZAWA D Frequency 129.375 MHZ
Type GND Name GND Frequency 121.9 MHZ
Type TWR Name TWR Frequency 118.3 MHZ
Airport Navaids
Type VOR-DME Name Okecie Frequency 113400 KHZ
Type NDB Name Piaseczno Frequency 330 KHZ
Type NDB Name Warszawa Frequency 336 KHZ
Type NDB Name Warszawa Frequency 412 KHZ
Type VOR-DME Name Zaborowek Frequency 114900 KHZ
Airport Weather Information & NOTAM
ADDS - METARS form results

(2224 UTC 12 July 2020)
Data provider http://aviationweather.gov/metar/data/
 
METAR text: EPWA 122200Z 27002KT CAVOK 12/09 Q1023 NOSIG
Conditions at: EPWA (WARSAW/OKECIE , PL) observed 2200 UTC 12 July 2020
Temperature: 12.0°C (54°F)
Dewpoint: 9.0°C (48°F) [RH = 82%]
Pressure (altimeter): 30.21 inches Hg (1023.0 mb)
Winds: from the W (270 degrees) at 2 MPH (2 knots; 1.0 m/s)
Visibility: 6 or more miles (10+ km)
Ceiling: ceiling and visibility are OK
Clouds: unknown
Weather: no significant weather observed at this time

METAR text: EPWA 122130Z 30003KT CAVOK 13/09 Q1024 NOSIG
Conditions at: EPWA (WARSAW/OKECIE , PL) observed 2130 UTC 12 July 2020
Temperature: 13.0°C (55°F)
Dewpoint: 9.0°C (48°F) [RH = 77%]
Pressure (altimeter): 30.24 inches Hg (1024.0 mb)
Winds: from the WNW (300 degrees) at 3 MPH (3 knots; 1.5 m/s)
Visibility: 6 or more miles (10+ km)
Ceiling: ceiling and visibility are OK
Clouds: unknown
Weather: no significant weather observed at this time

Forecast for: EPWA (WARSAW/OKECIE , PL)
Text: TAF EPWA 122030Z 1221/1321 29005KT CAVOK
Forecast period: 2100 UTC 12 July 2020 to 2100 UTC 13 July 2020
Forecast type: FROM: standard forecast or significant change
Winds: from the WNW (290 degrees) at 6 MPH (5 knots; 2.6 m/s)
Visibility: 6 or more miles 10+ km)
Ceiling: unknown
Clouds: missing
Weather: NSW  (no significant weather)
Text: PROB40
Forecast period: 0900 to 1800 UTC 13 July 2020
Forecast type: TEMPORARY: The following changes expected for less than half the time period
Winds: from the WNW (300 degrees) at 17 MPH (15 knots; 7.7 m/s)
gusting to 29 MPH (25 knots; 12.9 m/s)
Visibility: missing
Ceiling: 4000 feet AGL
Clouds: broken clouds at 4000 feet AGL
Weather: -SHRA  (light rain showers)